createdAt,value
2023-03-22T00:00:01.145Z,8.60
2023-03-22T00:02:30.642Z,8.60
2023-03-22T00:04:57.781Z,8.70
2023-03-22T00:07:25.052Z,8.60
2023-03-22T00:09:52.155Z,8.70
2023-03-22T00:12:19.190Z,8.70
2023-03-22T00:14:46.369Z,8.60
2023-03-22T00:17:13.444Z,8.70
2023-03-22T00:19:42.354Z,8.70
2023-03-22T00:22:09.426Z,8.70
2023-03-22T00:24:36.567Z,8.70
2023-03-22T00:27:03.884Z,8.70
2023-03-22T00:29:31.107Z,8.70
2023-03-22T00:31:58.160Z,8.70
2023-03-22T00:34:26.784Z,8.60
2023-03-22T00:36:53.835Z,8.60
2023-03-22T00:39:21.048Z,8.60
2023-03-22T00:41:48.166Z,8.60
2023-03-22T00:44:15.513Z,8.50
2023-03-22T00:46:42.578Z,8.60
2023-03-22T00:49:09.730Z,8.50
2023-03-22T00:51:36.826Z,8.50
2023-03-22T00:54:03.930Z,8.60
2023-03-22T00:56:33.987Z,8.50
2023-03-22T00:59:01.057Z,8.50
2023-03-22T01:01:28.235Z,8.50
2023-03-22T01:03:55.724Z,8.50
2023-03-22T01:06:22.831Z,8.50
2023-03-22T01:08:51.105Z,8.50
2023-03-22T01:11:18.527Z,8.50
2023-03-22T01:13:45.777Z,8.50
2023-03-22T01:16:12.849Z,8.40
2023-03-22T01:18:39.979Z,8.50
2023-03-22T01:21:07.290Z,8.40
2023-03-22T01:23:34.849Z,8.40
2023-03-22T01:26:01.942Z,8.40
2023-03-22T01:28:29.903Z,8.40
2023-03-22T01:31:00.669Z,8.40
2023-03-22T01:33:27.821Z,8.30
2023-03-22T01:35:54.911Z,8.40
2023-03-22T01:38:22.429Z,8.40
2023-03-22T01:40:49.486Z,8.40
2023-03-22T01:43:17.800Z,8.40
2023-03-22T01:45:49.715Z,8.40
2023-03-22T01:48:30.544Z,8.40
2023-03-22T01:51:03.945Z,8.40
2023-03-22T01:53:35.189Z,8.40
2023-03-22T01:56:03.316Z,8.40
2023-03-22T01:58:31.278Z,8.40
2023-03-22T02:00:59.542Z,8.40
2023-03-22T02:03:38.199Z,8.40
2023-03-22T02:06:05.432Z,8.40
2023-03-22T02:08:33.825Z,8.40
2023-03-22T02:11:03.481Z,8.30
2023-03-22T02:13:42.731Z,8.30
2023-03-22T02:16:19.451Z,8.30
2023-03-22T02:18:56.137Z,8.30
2023-03-22T02:21:25.900Z,8.30
2023-03-22T02:24:29.770Z,8.30
2023-03-22T02:27:06.613Z,8.30
2023-03-22T02:29:56.182Z,8.20
2023-03-22T02:33:00.873Z,8.30
2023-03-22T02:35:42.995Z,8.20
2023-03-22T02:39:04.581Z,8.20
2023-03-22T02:41:31.548Z,8.20
2023-03-22T02:44:46.091Z,8.20
2023-03-22T02:47:29.414Z,8.20
2023-03-22T02:49:58.508Z,8.20
2023-03-22T02:52:29.334Z,8.20
2023-03-22T02:55:01.781Z,8.20
2023-03-22T02:57:33.497Z,8.10
2023-03-22T03:00:03.050Z,8.10
2023-03-22T03:02:32.427Z,8.10
2023-03-22T03:05:00.284Z,8.00
2023-03-22T03:07:29.679Z,8.00
2023-03-22T03:09:57.430Z,8.00
2023-03-22T03:12:26.131Z,8.00
2023-03-22T03:14:53.220Z,8.00
2023-03-22T03:17:50.427Z,7.90
2023-03-22T03:20:34.967Z,7.90
2023-03-22T03:23:01.850Z,7.90
2023-03-22T03:25:46.481Z,7.90
2023-03-22T03:28:39.258Z,7.90
2023-03-22T03:31:24.648Z,7.80
2023-03-22T03:34:20.047Z,7.80
2023-03-22T03:36:59.864Z,7.80
2023-03-22T03:39:30.933Z,7.80
2023-03-22T03:42:00.094Z,7.80
2023-03-22T03:44:28.037Z,7.80
2023-03-22T03:46:56.458Z,7.80
2023-03-22T03:49:24.435Z,7.80
2023-03-22T03:51:54.625Z,7.70
2023-03-22T03:54:22.579Z,7.70
2023-03-22T03:56:50.021Z,7.60
2023-03-22T03:59:18.027Z,7.60
2023-03-22T04:01:52.828Z,7.60
2023-03-22T04:04:29.023Z,7.70
2023-03-22T04:06:58.171Z,7.70
2023-03-22T04:09:27.568Z,7.70
2023-03-22T04:11:56.060Z,7.70
2023-03-22T04:14:24.550Z,7.80
2023-03-22T04:16:52.373Z,7.80
2023-03-22T04:19:20.373Z,7.80
2023-03-22T04:21:47.427Z,7.80
2023-03-22T04:24:15.544Z,7.80
2023-03-22T04:26:42.865Z,7.80
2023-03-22T04:29:10.145Z,7.80
2023-03-22T04:31:37.788Z,7.80
2023-03-22T04:34:08.277Z,7.80
2023-03-22T04:36:39.578Z,7.80
2023-03-22T04:39:10.576Z,7.80
2023-03-22T04:41:38.118Z,7.80
2023-03-22T04:44:07.166Z,7.70
2023-03-22T04:46:36.800Z,7.80
2023-03-22T04:49:05.539Z,7.80
2023-03-22T04:51:32.694Z,7.80
2023-03-22T04:54:00.742Z,7.80
2023-03-22T04:56:27.940Z,7.80
2023-03-22T04:58:55.134Z,7.80
2023-03-22T05:01:22.257Z,7.80
2023-03-22T05:03:49.339Z,7.80
2023-03-22T05:06:16.496Z,7.80
2023-03-22T05:08:43.839Z,7.70
2023-03-22T05:11:14.609Z,7.70
2023-03-22T05:13:41.825Z,7.70
2023-03-22T05:16:10.097Z,7.70
2023-03-22T05:18:42.572Z,7.70
2023-03-22T05:21:18.010Z,7.70
2023-03-22T05:23:45.946Z,7.70
2023-03-22T05:26:15.915Z,7.70
2023-03-22T05:28:44.330Z,7.70
2023-03-22T05:31:14.890Z,7.80
2023-03-22T05:33:42.032Z,7.80
2023-03-22T05:36:11.449Z,7.90
2023-03-22T05:38:38.712Z,7.80
2023-03-22T05:41:06.243Z,7.80
2023-03-22T05:43:33.762Z,7.70
2023-03-22T05:46:01.180Z,7.70
2023-03-22T05:48:28.237Z,7.70
2023-03-22T05:50:55.630Z,7.70
2023-03-22T05:53:22.755Z,7.60
2023-03-22T05:55:49.754Z,7.70
2023-03-22T05:58:19.319Z,7.70
2023-03-22T06:00:50.034Z,7.90
2023-03-22T06:03:18.521Z,8.10
2023-03-22T06:05:46.705Z,8.30
2023-03-22T06:08:13.802Z,8.60
2023-03-22T06:10:41.137Z,9.00
2023-03-22T06:13:08.454Z,9.20
2023-03-22T06:15:35.657Z,9.00
2023-03-22T06:18:02.774Z,8.80
2023-03-22T06:20:29.773Z,8.70
2023-03-22T06:22:56.854Z,8.60
2023-03-22T06:25:23.872Z,8.50
2023-03-22T06:27:51.127Z,8.50
2023-03-22T06:30:19.274Z,8.50
2023-03-22T06:32:46.464Z,8.50
2023-03-22T06:35:13.577Z,8.50
2023-03-22T06:37:40.757Z,8.50
2023-03-22T06:40:09.211Z,8.50
2023-03-22T06:42:37.199Z,8.50
2023-03-22T06:45:04.980Z,8.50
2023-03-22T06:47:32.050Z,8.40
2023-03-22T06:49:59.129Z,8.40
2023-03-22T06:52:26.249Z,8.40
2023-03-22T06:54:53.313Z,8.40
2023-03-22T06:57:20.484Z,8.40
2023-03-22T06:59:47.663Z,8.50
2023-03-22T07:02:14.706Z,8.50
2023-03-22T07:04:41.881Z,8.60
2023-03-22T07:07:08.992Z,8.70
2023-03-22T07:09:36.164Z,8.80
2023-03-22T07:12:05.306Z,8.90
2023-03-22T07:14:32.887Z,8.90
2023-03-22T07:17:00.258Z,9.00
2023-03-22T07:19:27.874Z,9.10
2023-03-22T07:21:55.003Z,9.20
2023-03-22T07:24:22.316Z,9.30
2023-03-22T07:26:49.357Z,9.20
2023-03-22T07:29:16.534Z,9.20
2023-03-22T07:31:43.544Z,9.20
2023-03-22T07:34:11.073Z,9.20
2023-03-22T07:36:38.453Z,9.30
2023-03-22T07:39:06.172Z,9.50
2023-03-22T07:41:33.466Z,9.50
2023-03-22T07:44:16.678Z,9.70
2023-03-22T07:46:44.356Z,9.90
2023-03-22T07:49:11.352Z,10.10
2023-03-22T07:51:38.693Z,10.10
2023-03-22T07:54:07.729Z,10.10
2023-03-22T07:56:35.691Z,10.20
2023-03-22T07:59:03.258Z,10.30
2023-03-22T08:01:30.417Z,10.40
2023-03-22T08:03:57.470Z,10.60
2023-03-22T08:06:24.476Z,10.70
2023-03-22T08:08:52.401Z,10.70
2023-03-22T08:11:19.560Z,10.80
2023-03-22T08:13:47.330Z,10.90
2023-03-22T08:16:14.430Z,10.90
2023-03-22T08:18:43.633Z,10.80
2023-03-22T08:21:11.672Z,10.80
2023-03-22T08:23:42.055Z,10.70
2023-03-22T08:26:10.784Z,10.80
2023-03-22T08:28:38.165Z,10.80
2023-03-22T08:31:16.618Z,10.90
2023-03-22T08:33:44.616Z,11.00
2023-03-22T08:36:15.072Z,11.10
2023-03-22T08:38:45.479Z,11.00
2023-03-22T08:41:13.490Z,11.20
2023-03-22T08:43:40.667Z,11.40
2023-03-22T08:46:08.140Z,11.40
2023-03-22T08:48:38.103Z,11.60
2023-03-22T08:51:06.589Z,11.60
2023-03-22T08:53:33.852Z,11.60
2023-03-22T08:56:01.895Z,11.70
2023-03-22T08:58:28.973Z,11.70
2023-03-22T09:00:56.231Z,11.70
2023-03-22T09:03:25.053Z,11.70
2023-03-22T09:05:52.337Z,11.80
2023-03-22T09:08:20.143Z,12.00
2023-03-22T09:10:51.600Z,12.10
2023-03-22T09:13:19.733Z,12.10
2023-03-22T09:15:47.306Z,12.10
2023-03-22T09:18:15.254Z,12.20
2023-03-22T09:20:44.834Z,12.40
2023-03-22T09:23:13.000Z,12.50
2023-03-22T09:25:47.289Z,12.70
2023-03-22T09:28:14.646Z,12.80
2023-03-22T09:30:42.127Z,12.70
2023-03-22T09:33:09.543Z,12.60
2023-03-22T09:35:40.118Z,12.40
2023-03-22T09:38:07.448Z,12.30
2023-03-22T09:40:37.781Z,12.20
2023-03-22T09:43:07.723Z,12.30
2023-03-22T09:45:42.912Z,12.20
2023-03-22T09:48:26.954Z,12.20
2023-03-22T09:50:55.768Z,12.30
2023-03-22T09:53:26.807Z,12.30
2023-03-22T09:56:12.165Z,12.30
2023-03-22T09:58:54.594Z,12.20
2023-03-22T10:01:21.794Z,12.30
2023-03-22T10:03:57.658Z,12.60
2023-03-22T10:06:28.221Z,12.80
2023-03-22T10:08:59.465Z,13.10
2023-03-22T10:11:47.006Z,13.10
2023-03-22T10:14:41.611Z,12.90
2023-03-22T10:17:17.576Z,12.90
2023-03-22T10:19:53.271Z,13.00
2023-03-22T10:22:25.360Z,13.30
2023-03-22T10:24:54.071Z,13.30
2023-03-22T10:27:23.940Z,13.30
2023-03-22T10:29:56.008Z,13.30
2023-03-22T10:32:34.440Z,13.20
2023-03-22T10:35:01.526Z,13.30
2023-03-22T10:37:34.738Z,13.40
2023-03-22T10:40:08.294Z,13.50
2023-03-22T10:42:38.808Z,13.60
2023-03-22T10:45:14.353Z,13.50
2023-03-22T10:47:50.126Z,13.50
2023-03-22T10:50:28.886Z,13.80
2023-03-22T10:52:56.844Z,13.90
2023-03-22T10:55:25.619Z,13.80
2023-03-22T10:58:18.946Z,13.80
2023-03-22T11:00:49.570Z,14.00
2023-03-22T11:03:34.999Z,13.90
2023-03-22T11:06:15.871Z,14.00
2023-03-22T11:08:47.071Z,14.10
2023-03-22T11:11:27.424Z,13.90
2023-03-22T11:14:00.053Z,13.80
2023-03-22T11:16:29.327Z,13.80
2023-03-22T11:18:58.357Z,13.90
2023-03-22T11:21:31.161Z,14.10
2023-03-22T11:24:01.857Z,14.00
2023-03-22T11:26:38.805Z,14.00
2023-03-22T11:29:16.719Z,13.90
2023-03-22T11:31:59.371Z,13.90
2023-03-22T11:34:30.321Z,14.00
2023-03-22T11:37:00.971Z,13.90
2023-03-22T11:39:29.433Z,14.00
2023-03-22T11:42:01.920Z,13.90
2023-03-22T11:44:34.482Z,14.00
2023-03-22T11:47:03.684Z,14.00
2023-03-22T11:49:57.325Z,14.00
2023-03-22T11:52:27.743Z,13.90
2023-03-22T11:54:56.316Z,14.00
2023-03-22T11:57:30.054Z,14.10
2023-03-22T12:00:26.805Z,13.90
2023-03-22T12:03:14.018Z,13.70
2023-03-22T12:05:44.757Z,13.60
2023-03-22T12:08:45.194Z,13.60
2023-03-22T12:11:19.362Z,13.60
2023-03-22T12:13:51.661Z,13.60
2023-03-22T12:16:25.546Z,13.60
2023-03-22T12:19:15.672Z,13.50
2023-03-22T12:21:43.607Z,13.50
2023-03-22T12:24:28.150Z,13.50
2023-03-22T12:27:16.998Z,13.40
2023-03-22T12:29:52.135Z,13.20
2023-03-22T12:32:25.280Z,13.10
2023-03-22T12:35:01.392Z,13.10
2023-03-22T12:37:40.314Z,13.10
2023-03-22T12:40:26.287Z,13.00
2023-03-22T12:43:02.470Z,12.90
2023-03-22T12:45:33.801Z,12.90
2023-03-22T12:48:04.550Z,12.90
2023-03-22T12:50:39.303Z,12.80
2023-03-22T12:53:07.124Z,12.80
2023-03-22T12:55:38.113Z,12.80
2023-03-22T12:58:13.369Z,12.80
2023-03-22T13:00:52.787Z,12.70
2023-03-22T13:03:38.302Z,12.70
2023-03-22T13:06:17.870Z,12.60
2023-03-22T13:09:13.252Z,12.60
2023-03-22T13:11:41.417Z,12.60
2023-03-22T13:14:11.708Z,12.50
2023-03-22T13:16:56.467Z,12.50
2023-03-22T13:19:36.437Z,12.50
2023-03-22T13:22:30.896Z,12.50
2023-03-22T13:24:59.158Z,12.50
2023-03-22T13:27:45.124Z,12.50
2023-03-22T13:30:17.278Z,12.40
2023-03-22T13:32:56.258Z,12.40
2023-03-22T13:35:28.520Z,12.30
2023-03-22T13:38:03.265Z,12.20
2023-03-22T13:40:39.984Z,12.10
2023-03-22T13:43:32.657Z,12.10
2023-03-22T13:46:29.771Z,12.10
2023-03-22T13:49:03.301Z,12.10
2023-03-22T13:51:33.575Z,12.20
2023-03-22T13:54:13.547Z,12.10
2023-03-22T13:57:01.848Z,12.20
2023-03-22T14:00:03.122Z,12.30
2023-03-22T14:02:41.057Z,12.30
2023-03-22T14:05:18.255Z,12.40
2023-03-22T14:07:48.426Z,12.40
2023-03-22T14:10:39.149Z,12.40
2023-03-22T14:13:20.896Z,12.40
2023-03-22T14:15:56.231Z,12.50
2023-03-22T14:18:36.608Z,12.60
2023-03-22T14:21:12.782Z,12.50
